LAN1802 SCCI-SCEL
Flight info
| Callsign | LAN1802 |
|---|---|
| Flight time | 3h 1m |
| Altitude | 36000 |
| Route | SIRUN4A SIRUN UQ802 EROLO EROLO8A |
| Aircraft | A320/M-SDE3FGHIRWY/LB1 |
Departure
| Time | 2026-05-04 21:08 |
|---|---|
| Airport | President Carlos Ibáñez International Airport (SCCI) |
Arrival
| Time | 2026-05-05 00:09 |
|---|---|
| Airport | Comodoro Arturo Merino Benítez International Airport (SCEL) |
| Time | Latitude | Longitude | Altitude | Speed | Heading |
|---|---|---|---|---|---|
| 2026-05-04 20:46 | -53.00449 | -70.84450 | 138 ft | 0 kts | 179° |
| 2026-05-04 20:59 | -53.00447 | -70.84450 | 137 ft | 3 kts | 179° |
| 2026-05-04 21:00 | -53.00426 | -70.84451 | 133 ft | 3 kts | 178° |
| 2026-05-04 21:00 | -53.00407 | -70.84452 | 135 ft | 3 kts | 172° |
| 2026-05-04 21:00 | -53.00393 | -70.84457 | 135 ft | 1 kts | 144° |
| 2026-05-04 21:00 | -53.00385 | -70.84468 | 136 ft | 2 kts | 105° |
| 2026-05-04 21:01 | -53.00383 | -70.84484 | 135 ft | 1 kts | 91° |
| 2026-05-04 21:01 | -53.00383 | -70.84499 | 135 ft | 1 kts | 89° |
| 2026-05-04 21:01 | -53.00383 | -70.84506 | 134 ft | 0 kts | 88° |
| 2026-05-04 21:02 | -53.00383 | -70.84504 | 130 ft | 2 kts | 88° |
| 2026-05-04 21:03 | -53.00382 | -70.84444 | 158 ft | 8 kts | 89° |
| 2026-05-04 21:03 | -53.00370 | -70.84377 | 158 ft | 4 kts | 45° |
| 2026-05-04 21:03 | -53.00340 | -70.84371 | 158 ft | 6 kts | 359° |
| 2026-05-04 21:03 | -53.00277 | -70.84372 | 158 ft | 11 kts | 2° |
| 2026-05-04 21:04 | -53.00247 | -70.84260 | 158 ft | 13 kts | 89° |
| 2026-05-04 21:04 | -53.00246 | -70.84092 | 158 ft | 15 kts | 88° |
| 2026-05-04 21:04 | -53.00242 | -70.83905 | 159 ft | 17 kts | 87° |
| 2026-05-04 21:04 | -53.00238 | -70.83708 | 159 ft | 17 kts | 90° |
| 2026-05-04 21:05 | -53.00235 | -70.83515 | 159 ft | 16 kts | 86° |
| 2026-05-04 21:05 | -53.00234 | -70.83328 | 159 ft | 16 kts | 88° |
| 2026-05-04 21:05 | -53.00232 | -70.83155 | 159 ft | 13 kts | 92° |
| 2026-05-04 21:05 | -53.00215 | -70.83042 | 159 ft | 8 kts | 35° |
| 2026-05-04 21:06 | -53.00184 | -70.83034 | 159 ft | 2 kts | 360° |
| 2026-05-04 21:06 | -53.00164 | -70.83035 | 159 ft | 7 kts | 358° |
| 2026-05-04 21:06 | -53.00099 | -70.83039 | 160 ft | 10 kts | 358° |
| 2026-05-04 21:06 | -53.00059 | -70.83067 | 160 ft | 4 kts | 293° |
| 2026-05-04 21:07 | -53.00060 | -70.83168 | 159 ft | 29 kts | 268° |
| 2026-05-04 21:07 | -53.00070 | -70.83925 | 159 ft | 98 kts | 269° |
| 2026-05-04 21:07 | -53.00090 | -70.85365 | 155 ft | 150 kts | 269° |
| 2026-05-04 21:07 | -53.00102 | -70.87240 | 497 ft | 165 kts | 267° |
| 2026-05-04 21:08 | -53.00003 | -70.89125 | 1118 ft | 167 kts | 298° |
| 2026-05-04 21:08 | -52.99277 | -70.90579 | 1792 ft | 164 kts | 316° |
| 2026-05-04 21:08 | -52.98483 | -70.91947 | 2420 ft | 166 kts | 315° |
| 2026-05-04 21:08 | -52.97646 | -70.93420 | 2715 ft | 186 kts | 314° |
| 2026-05-04 21:09 | -52.96708 | -70.95088 | 2943 ft | 209 kts | 314° |
| 2026-05-04 21:09 | -52.95666 | -70.96951 | 3180 ft | 232 kts | 313° |
| 2026-05-04 21:09 | -52.94520 | -70.99010 | 3525 ft | 255 kts | 312° |
| 2026-05-04 21:09 | -52.93291 | -71.01230 | 4243 ft | 263 kts | 311° |
| 2026-05-04 21:10 | -52.92065 | -71.03450 | 5083 ft | 266 kts | 310° |
| 2026-05-04 21:10 | -52.90798 | -71.05747 | 5937 ft | 268 kts | 310° |
| 2026-05-04 21:10 | -52.89527 | -71.08039 | 6719 ft | 272 kts | 311° |
| 2026-05-04 21:10 | -52.88210 | -71.10314 | 7500 ft | 276 kts | 312° |
| 2026-05-04 21:11 | -52.86878 | -71.12565 | 8250 ft | 280 kts | 313° |
| 2026-05-04 21:11 | -52.85496 | -71.14880 | 9015 ft | 284 kts | 313° |
| 2026-05-04 21:11 | -52.84092 | -71.17228 | 9731 ft | 288 kts | 313° |
| 2026-05-04 21:11 | -52.82680 | -71.19595 | 10352 ft | 296 kts | 313° |
| 2026-05-04 21:12 | -52.81169 | -71.22137 | 10535 ft | 319 kts | 313° |
| 2026-05-04 21:12 | -52.79564 | -71.24841 | 10753 ft | 339 kts | 314° |
| 2026-05-04 21:12 | -52.77892 | -71.27657 | 11324 ft | 345 kts | 314° |
| 2026-05-04 21:12 | -52.76199 | -71.30502 | 12019 ft | 349 kts | 314° |
| 2026-05-04 21:13 | -52.75069 | -71.32397 | 12475 ft | 351 kts | 314° |
| 2026-05-04 21:13 | -52.73346 | -71.35287 | 13162 ft | 354 kts | 314° |
| 2026-05-04 21:13 | -52.71594 | -71.38169 | 13773 ft | 358 kts | 315° |
| 2026-05-04 21:13 | -52.69767 | -71.40989 | 14367 ft | 361 kts | 317° |
| 2026-05-04 21:14 | -52.67892 | -71.43769 | 14959 ft | 364 kts | 317° |
| 2026-05-04 21:14 | -52.65988 | -71.46544 | 15549 ft | 367 kts | 318° |
| 2026-05-04 21:14 | -52.64063 | -71.49343 | 16132 ft | 370 kts | 317° |
| 2026-05-04 21:14 | -52.62126 | -71.52178 | 16716 ft | 374 kts | 317° |
| 2026-05-04 21:15 | -52.60184 | -71.55037 | 17297 ft | 377 kts | 317° |
| 2026-05-04 21:15 | -52.58226 | -71.57939 | 17862 ft | 380 kts | 317° |
| 2026-05-04 21:15 | -52.56259 | -71.60863 | 18370 ft | 383 kts | 317° |
| 2026-05-04 21:15 | -52.54275 | -71.63806 | 18876 ft | 386 kts | 317° |
| 2026-05-04 21:16 | -52.52276 | -71.66767 | 19379 ft | 389 kts | 317° |
| 2026-05-04 21:16 | -52.50257 | -71.69750 | 19887 ft | 392 kts | 317° |
| 2026-05-04 21:16 | -52.48224 | -71.72750 | 20393 ft | 394 kts | 317° |
| 2026-05-04 21:16 | -52.46178 | -71.75765 | 20892 ft | 397 kts | 317° |
| 2026-05-04 21:17 | -52.44111 | -71.78806 | 21362 ft | 400 kts | 317° |
| 2026-05-04 21:17 | -52.42030 | -71.81860 | 21830 ft | 403 kts | 317° |
| 2026-05-04 21:17 | -52.39930 | -71.84937 | 22292 ft | 406 kts | 317° |
| 2026-05-04 21:17 | -52.37816 | -71.88030 | 22743 ft | 409 kts | 317° |
| 2026-05-04 21:18 | -52.35689 | -71.91139 | 23151 ft | 411 kts | 317° |
| 2026-05-04 21:18 | -52.33550 | -71.94260 | 23493 ft | 414 kts | 317° |
| 2026-05-04 21:18 | -52.31391 | -71.97408 | 23837 ft | 417 kts | 317° |
| 2026-05-04 21:18 | -52.29221 | -72.00571 | 24170 ft | 420 kts | 317° |
| 2026-05-04 21:19 | -52.27029 | -72.03760 | 24484 ft | 423 kts | 317° |
| 2026-05-04 21:19 | -52.24850 | -72.06928 | 24792 ft | 425 kts | 318° |
| 2026-05-04 21:19 | -52.22633 | -72.10152 | 25108 ft | 428 kts | 318° |
| 2026-05-04 21:19 | -52.20401 | -72.13396 | 25416 ft | 431 kts | 318° |
| 2026-05-04 21:20 | -52.18156 | -72.16651 | 25725 ft | 433 kts | 318° |
| 2026-05-04 21:20 | -52.15893 | -72.19923 | 26023 ft | 436 kts | 318° |
| 2026-05-04 21:20 | -52.13616 | -72.23208 | 26317 ft | 438 kts | 319° |
| 2026-05-04 21:20 | -52.11324 | -72.26510 | 26605 ft | 441 kts | 319° |
| 2026-05-04 21:21 | -52.09021 | -72.29821 | 26889 ft | 443 kts | 319° |
| 2026-05-04 21:21 | -52.06705 | -72.33146 | 27182 ft | 446 kts | 319° |
| 2026-05-04 21:21 | -52.04374 | -72.36486 | 27460 ft | 448 kts | 319° |
| 2026-05-04 21:21 | -52.02031 | -72.39846 | 27729 ft | 450 kts | 319° |
| 2026-05-04 21:22 | -51.99676 | -72.43220 | 28005 ft | 452 kts | 319° |
| 2026-05-04 21:22 | -51.97316 | -72.46597 | 28255 ft | 454 kts | 319° |
| 2026-05-04 21:22 | -51.94940 | -72.49990 | 28504 ft | 456 kts | 319° |
| 2026-05-04 21:22 | -51.92552 | -72.53392 | 28748 ft | 458 kts | 319° |
| 2026-05-04 21:23 | -51.90152 | -72.56801 | 28985 ft | 459 kts | 319° |
| 2026-05-04 21:23 | -51.87742 | -72.60214 | 29219 ft | 461 kts | 319° |
| 2026-05-04 21:23 | -51.85356 | -72.63594 | 29440 ft | 463 kts | 319° |
| 2026-05-04 21:23 | -51.82795 | -72.66861 | 29677 ft | 462 kts | 326° |
| 2026-05-04 21:24 | -51.80064 | -72.69582 | 29959 ft | 461 kts | 329° |
| 2026-05-04 21:24 | -51.77346 | -72.72202 | 30231 ft | 460 kts | 329° |
| 2026-05-04 21:24 | -51.74598 | -72.74840 | 30500 ft | 459 kts | 329° |
| 2026-05-04 21:24 | -51.71853 | -72.77469 | 30772 ft | 458 kts | 329° |
| 2026-05-04 21:25 | -51.69116 | -72.80088 | 31045 ft | 458 kts | 329° |
| 2026-05-04 21:25 | -51.66382 | -72.82701 | 31324 ft | 457 kts | 329° |
| 2026-05-04 21:25 | -51.63650 | -72.85313 | 31590 ft | 456 kts | 329° |
| 2026-05-04 21:25 | -51.60944 | -72.87896 | 31857 ft | 456 kts | 329° |
| 2026-05-04 21:26 | -51.58190 | -72.90518 | 32119 ft | 455 kts | 329° |
| 2026-05-04 21:26 | -51.55467 | -72.93109 | 32379 ft | 455 kts | 329° |
| 2026-05-04 21:26 | -51.52745 | -72.95700 | 32614 ft | 454 kts | 329° |
| 2026-05-04 21:26 | -51.50029 | -72.98284 | 32866 ft | 454 kts | 329° |
| 2026-05-04 21:27 | -51.47311 | -73.00868 | 33119 ft | 454 kts | 329° |
| 2026-05-04 21:27 | -51.44596 | -73.03443 | 33373 ft | 454 kts | 329° |
| 2026-05-04 21:27 | -51.39166 | -73.08570 | 33480 ft | 452 kts | 329° |
| 2026-05-04 21:28 | -51.33747 | -73.13651 | 33479 ft | 450 kts | 329° |
| 2026-05-04 21:28 | -51.28382 | -73.18691 | 33482 ft | 450 kts | 329° |
| 2026-05-04 21:29 | -51.22991 | -73.23745 | 33480 ft | 449 kts | 329° |
| 2026-05-04 21:29 | -51.17600 | -73.28783 | 33480 ft | 449 kts | 329° |
| 2026-05-04 21:30 | -51.12208 | -73.33796 | 33475 ft | 448 kts | 329° |
| 2026-05-04 21:30 | -51.06822 | -73.38789 | 33482 ft | 448 kts | 329° |
| 2026-05-04 21:31 | -50.98758 | -73.46256 | 33486 ft | 447 kts | 329° |
| 2026-05-04 21:32 | -50.93391 | -73.51208 | 33489 ft | 446 kts | 329° |
| 2026-05-04 21:32 | -50.88033 | -73.56144 | 33482 ft | 445 kts | 329° |
| 2026-05-04 21:33 | -50.82669 | -73.61072 | 33475 ft | 446 kts | 329° |
| 2026-05-04 21:33 | -50.77303 | -73.65978 | 33475 ft | 446 kts | 329° |
| 2026-05-04 21:34 | -50.71927 | -73.70891 | 33471 ft | 446 kts | 330° |
| 2026-05-04 21:34 | -50.66542 | -73.75780 | 33471 ft | 447 kts | 329° |
| 2026-05-04 21:35 | -50.61151 | -73.80671 | 33467 ft | 447 kts | 329° |
| 2026-05-04 21:35 | -50.55786 | -73.85519 | 33472 ft | 448 kts | 329° |
| 2026-05-04 21:36 | -50.50382 | -73.90396 | 33469 ft | 448 kts | 329° |
| 2026-05-04 21:36 | -50.44971 | -73.95274 | 33475 ft | 449 kts | 329° |
| 2026-05-04 21:37 | -50.39464 | -73.99896 | 33477 ft | 450 kts | 337° |
| 2026-05-04 21:37 | -50.33393 | -74.02016 | 33483 ft | 453 kts | 356° |
| 2026-05-04 21:38 | -50.27038 | -74.01454 | 33484 ft | 455 kts | 4° |
| 2026-05-04 21:38 | -50.20729 | -74.00611 | 33484 ft | 456 kts | 3° |
| 2026-05-04 21:39 | -50.14405 | -73.99780 | 33490 ft | 456 kts | 3° |
| 2026-05-04 21:39 | -50.08111 | -73.98959 | 33497 ft | 457 kts | 3° |
| 2026-05-04 21:40 | -50.01780 | -73.98114 | 33500 ft | 457 kts | 3° |
| 2026-05-04 21:40 | -49.95435 | -73.97280 | 33505 ft | 457 kts | 2° |
| 2026-05-04 21:41 | -49.89081 | -73.96445 | 33508 ft | 458 kts | 2° |
| 2026-05-04 21:41 | -49.82766 | -73.95607 | 33517 ft | 458 kts | 2° |
| 2026-05-04 21:42 | -49.76410 | -73.94783 | 33519 ft | 458 kts | 2° |
| 2026-05-04 21:42 | -49.70053 | -73.93958 | 33525 ft | 459 kts | 2° |
| 2026-05-04 21:43 | -49.63693 | -73.93131 | 33525 ft | 459 kts | 2° |
| 2026-05-04 21:43 | -49.57324 | -73.92307 | 33527 ft | 459 kts | 2° |
| 2026-05-04 21:44 | -49.50956 | -73.91480 | 33541 ft | 459 kts | 1° |
| 2026-05-04 21:44 | -49.44580 | -73.90654 | 33540 ft | 460 kts | 1° |
| 2026-05-04 21:45 | -49.38194 | -73.89836 | 33534 ft | 461 kts | 1° |
| 2026-05-04 21:45 | -49.31800 | -73.89020 | 33546 ft | 461 kts | 1° |
| 2026-05-04 21:46 | -49.25445 | -73.88210 | 33555 ft | 461 kts | 1° |
| 2026-05-04 21:46 | -49.19047 | -73.87398 | 33562 ft | 461 kts | 1° |
| 2026-05-04 21:47 | -49.12647 | -73.86577 | 33565 ft | 462 kts | 1° |
| 2026-05-04 21:47 | -49.06238 | -73.85760 | 33570 ft | 462 kts | 0° |
| 2026-05-04 21:48 | -48.99831 | -73.84953 | 33573 ft | 462 kts | 0° |
| 2026-05-04 21:48 | -48.93424 | -73.84149 | 33582 ft | 462 kts | 0° |
| 2026-05-04 21:49 | -48.87005 | -73.83330 | 33590 ft | 463 kts | 0° |
| 2026-05-04 21:49 | -48.80623 | -73.82523 | 33592 ft | 462 kts | 360° |
| 2026-05-04 21:50 | -48.74212 | -73.81727 | 33597 ft | 462 kts | 360° |
| 2026-05-04 21:50 | -48.67797 | -73.80932 | 33600 ft | 462 kts | 359° |
| 2026-05-04 21:51 | -48.61336 | -73.80127 | 33603 ft | 463 kts | 359° |
| 2026-05-04 21:51 | -48.54927 | -73.79325 | 33609 ft | 462 kts | 359° |
| 2026-05-04 21:52 | -48.48557 | -73.78530 | 33613 ft | 462 kts | 359° |
| 2026-05-04 21:52 | -48.42144 | -73.77744 | 33622 ft | 462 kts | 359° |
| 2026-05-04 21:53 | -48.35735 | -73.76937 | 33635 ft | 462 kts | 359° |
| 2026-05-04 21:53 | -48.29317 | -73.76147 | 33639 ft | 462 kts | 359° |
| 2026-05-04 21:54 | -48.22916 | -73.75366 | 33636 ft | 461 kts | 359° |
| 2026-05-04 21:54 | -48.16519 | -73.74584 | 33646 ft | 461 kts | 359° |
| 2026-05-04 21:55 | -48.10113 | -73.73811 | 33647 ft | 462 kts | 358° |
| 2026-05-04 21:55 | -48.03708 | -73.73029 | 33643 ft | 462 kts | 358° |
| 2026-05-04 21:56 | -47.97296 | -73.72248 | 33645 ft | 462 kts | 358° |
| 2026-05-04 21:56 | -47.90933 | -73.71485 | 33647 ft | 462 kts | 358° |
| 2026-05-04 21:57 | -47.84523 | -73.70720 | 33647 ft | 462 kts | 358° |
| 2026-05-04 21:57 | -47.78122 | -73.69947 | 33642 ft | 462 kts | 358° |
| 2026-05-04 21:58 | -47.71718 | -73.69173 | 33644 ft | 462 kts | 358° |
| 2026-05-04 21:58 | -47.65299 | -73.68399 | 33651 ft | 462 kts | 357° |
| 2026-05-04 21:59 | -47.58895 | -73.67630 | 33658 ft | 461 kts | 357° |
| 2026-05-04 21:59 | -47.52493 | -73.66878 | 33654 ft | 462 kts | 357° |
| 2026-05-04 22:00 | -47.46085 | -73.66121 | 33656 ft | 462 kts | 356° |
| 2026-05-04 22:00 | -47.39672 | -73.65361 | 33664 ft | 463 kts | 356° |
| 2026-05-04 22:01 | -47.34342 | -73.64733 | 33665 ft | 462 kts | 356° |
| 2026-05-04 22:01 | -47.26835 | -73.63841 | 33671 ft | 463 kts | 356° |
| 2026-05-04 22:02 | -47.21499 | -73.63208 | 33669 ft | 462 kts | 356° |
| 2026-05-04 22:02 | -47.15092 | -73.62455 | 33680 ft | 461 kts | 356° |
| 2026-05-04 22:03 | -47.08688 | -73.61706 | 33674 ft | 462 kts | 356° |
| 2026-05-04 22:03 | -47.02316 | -73.60972 | 33691 ft | 462 kts | 355° |
| 2026-05-04 22:04 | -46.95910 | -73.60350 | 33695 ft | 459 kts | 353° |
| 2026-05-04 22:04 | -46.89533 | -73.60083 | 33702 ft | 458 kts | 352° |
| 2026-05-04 22:05 | -46.83149 | -73.59890 | 33711 ft | 459 kts | 352° |
| 2026-05-04 22:05 | -46.76763 | -73.59622 | 33713 ft | 459 kts | 352° |
| 2026-05-04 22:06 | -46.70372 | -73.59305 | 33717 ft | 460 kts | 352° |
| 2026-05-04 22:06 | -46.63978 | -73.58994 | 33723 ft | 460 kts | 352° |
| 2026-05-04 22:07 | -46.57590 | -73.58699 | 33724 ft | 459 kts | 352° |
| 2026-05-04 22:07 | -46.51190 | -73.58411 | 33729 ft | 460 kts | 351° |
| 2026-05-04 22:08 | -46.44793 | -73.58113 | 33729 ft | 460 kts | 351° |
| 2026-05-04 22:08 | -46.38400 | -73.57807 | 33745 ft | 459 kts | 352° |
| 2026-05-04 22:09 | -46.32020 | -73.57507 | 33750 ft | 458 kts | 351° |
| 2026-05-04 22:09 | -46.25690 | -73.57215 | 33740 ft | 457 kts | 351° |
| 2026-05-04 22:10 | -46.19337 | -73.56928 | 33741 ft | 456 kts | 351° |
| 2026-05-04 22:10 | -46.12996 | -73.56635 | 33746 ft | 456 kts | 351° |
| 2026-05-04 22:11 | -46.06661 | -73.56343 | 33758 ft | 455 kts | 351° |
| 2026-05-04 22:11 | -46.00331 | -73.56051 | 33765 ft | 454 kts | 350° |
| 2026-05-04 22:12 | -45.94026 | -73.55762 | 33772 ft | 452 kts | 350° |
| 2026-05-04 22:12 | -45.87746 | -73.55472 | 33781 ft | 451 kts | 350° |
| 2026-05-04 22:13 | -45.81517 | -73.55184 | 33781 ft | 449 kts | 350° |
| 2026-05-04 22:13 | -45.75277 | -73.54906 | 33787 ft | 448 kts | 349° |
| 2026-05-04 22:14 | -45.69057 | -73.54633 | 33786 ft | 446 kts | 349° |
| 2026-05-04 22:14 | -45.62852 | -73.54353 | 33793 ft | 445 kts | 349° |
| 2026-05-04 22:15 | -45.56667 | -73.54068 | 33794 ft | 444 kts | 348° |
| 2026-05-04 22:15 | -45.50506 | -73.53793 | 33801 ft | 443 kts | 348° |
| 2026-05-04 22:16 | -45.44354 | -73.53512 | 33803 ft | 441 kts | 348° |
| 2026-05-04 22:16 | -45.38221 | -73.53239 | 33808 ft | 440 kts | 348° |
| 2026-05-04 22:17 | -45.32105 | -73.52973 | 33807 ft | 439 kts | 347° |
| 2026-05-04 22:17 | -45.25999 | -73.52699 | 33804 ft | 438 kts | 347° |
| 2026-05-04 22:18 | -45.19912 | -73.52419 | 33793 ft | 437 kts | 347° |
| 2026-05-04 22:18 | -45.13824 | -73.52102 | 33803 ft | 440 kts | 348° |
| 2026-05-04 22:19 | -45.07694 | -73.51385 | 33801 ft | 444 kts | 350° |
| 2026-05-04 22:19 | -45.01539 | -73.50482 | 33807 ft | 444 kts | 349° |
| 2026-05-04 22:20 | -44.95407 | -73.49639 | 33807 ft | 442 kts | 348° |
| 2026-05-04 22:20 | -44.89291 | -73.48878 | 33805 ft | 441 kts | 348° |
| 2026-05-04 22:21 | -44.83186 | -73.48143 | 33808 ft | 440 kts | 348° |
| 2026-05-04 22:21 | -44.77078 | -73.47393 | 33814 ft | 440 kts | 347° |
| 2026-05-04 22:22 | -44.71027 | -73.46636 | 33812 ft | 439 kts | 347° |
| 2026-05-04 22:22 | -44.64935 | -73.45881 | 33813 ft | 438 kts | 347° |
| 2026-05-04 22:23 | -44.58859 | -73.45136 | 33822 ft | 438 kts | 347° |
| 2026-05-04 22:23 | -44.52785 | -73.44390 | 33834 ft | 438 kts | 347° |
| 2026-05-04 22:24 | -44.46715 | -73.43637 | 33834 ft | 437 kts | 347° |
| 2026-05-04 22:24 | -44.40654 | -73.42897 | 33831 ft | 437 kts | 347° |
| 2026-05-04 22:25 | -44.34604 | -73.42160 | 33828 ft | 436 kts | 347° |
| 2026-05-04 22:25 | -44.28547 | -73.41412 | 33823 ft | 436 kts | 347° |
| 2026-05-04 22:26 | -44.22502 | -73.40671 | 33822 ft | 436 kts | 347° |
| 2026-05-04 22:26 | -44.16468 | -73.39942 | 33826 ft | 436 kts | 347° |
| 2026-05-04 22:27 | -44.10460 | -73.39214 | 33832 ft | 436 kts | 348° |
| 2026-05-04 22:27 | -44.04415 | -73.38468 | 33834 ft | 435 kts | 348° |
| 2026-05-04 22:28 | -43.98382 | -73.37742 | 33837 ft | 435 kts | 348° |
| 2026-05-04 22:28 | -43.92343 | -73.37019 | 33839 ft | 435 kts | 348° |
| 2026-05-04 22:29 | -43.86311 | -73.36289 | 33845 ft | 435 kts | 348° |
| 2026-05-04 22:29 | -43.80280 | -73.35565 | 33837 ft | 435 kts | 348° |
| 2026-05-04 22:30 | -43.74249 | -73.34847 | 33844 ft | 435 kts | 348° |
| 2026-05-04 22:30 | -43.68214 | -73.34113 | 33847 ft | 435 kts | 348° |
| 2026-05-04 22:31 | -43.62172 | -73.33383 | 33851 ft | 435 kts | 348° |
| 2026-05-04 22:31 | -43.56140 | -73.32664 | 33849 ft | 436 kts | 348° |
| 2026-05-04 22:32 | -43.50097 | -73.31950 | 33847 ft | 436 kts | 348° |
| 2026-05-04 22:32 | -43.44043 | -73.31241 | 33845 ft | 437 kts | 349° |
| 2026-05-04 22:33 | -43.37979 | -73.30523 | 33851 ft | 438 kts | 349° |
| 2026-05-04 22:33 | -43.31945 | -73.29809 | 33862 ft | 438 kts | 349° |
| 2026-05-04 22:34 | -43.25863 | -73.29095 | 33859 ft | 439 kts | 349° |
| 2026-05-04 22:34 | -43.19781 | -73.28371 | 33863 ft | 439 kts | 349° |
| 2026-05-04 22:35 | -43.13687 | -73.27657 | 33868 ft | 439 kts | 349° |
| 2026-05-04 22:35 | -43.07609 | -73.27000 | 33871 ft | 438 kts | 349° |
| 2026-05-04 22:36 | -43.01528 | -73.26377 | 33869 ft | 438 kts | 349° |
| 2026-05-04 22:36 | -42.95447 | -73.25739 | 33877 ft | 438 kts | 349° |
| 2026-05-04 22:37 | -42.89394 | -73.25101 | 33878 ft | 438 kts | 349° |
| 2026-05-04 22:37 | -42.83275 | -73.24449 | 33877 ft | 438 kts | 349° |
| 2026-05-04 22:38 | -42.77237 | -73.23818 | 33876 ft | 438 kts | 349° |
| 2026-05-04 22:38 | -42.71144 | -73.23193 | 33879 ft | 438 kts | 349° |
| 2026-05-04 22:39 | -42.65061 | -73.22558 | 33878 ft | 439 kts | 349° |
| 2026-05-04 22:39 | -42.58967 | -73.21915 | 33878 ft | 439 kts | 349° |
| 2026-05-04 22:40 | -42.52871 | -73.21271 | 33878 ft | 440 kts | 350° |
| 2026-05-04 22:40 | -42.46771 | -73.20635 | 33881 ft | 440 kts | 350° |
| 2026-05-04 22:41 | -42.40658 | -73.20005 | 33876 ft | 441 kts | 350° |
| 2026-05-04 22:41 | -42.34539 | -73.19336 | 33882 ft | 442 kts | 350° |
| 2026-05-04 22:42 | -42.28395 | -73.18632 | 33882 ft | 443 kts | 351° |
| 2026-05-04 22:42 | -42.22256 | -73.17926 | 33882 ft | 443 kts | 351° |
| 2026-05-04 22:43 | -42.16114 | -73.17232 | 33889 ft | 443 kts | 351° |
| 2026-05-04 22:43 | -42.09957 | -73.16552 | 33896 ft | 444 kts | 351° |
| 2026-05-04 22:44 | -42.03795 | -73.15868 | 33902 ft | 444 kts | 351° |
| 2026-05-04 22:44 | -41.97638 | -73.15190 | 33901 ft | 444 kts | 351° |
| 2026-05-04 22:45 | -41.91520 | -73.14525 | 33897 ft | 444 kts | 351° |
| 2026-05-04 22:45 | -41.82262 | -73.13505 | 33896 ft | 445 kts | 351° |
| 2026-05-04 22:46 | -41.76083 | -73.12818 | 33893 ft | 446 kts | 351° |
| 2026-05-04 22:46 | -41.69884 | -73.12141 | 33906 ft | 447 kts | 351° |
| 2026-05-04 22:47 | -41.63685 | -73.11459 | 33916 ft | 447 kts | 351° |
| 2026-05-04 22:47 | -41.57473 | -73.10772 | 33915 ft | 448 kts | 351° |
| 2026-05-04 22:48 | -41.51258 | -73.10099 | 33921 ft | 448 kts | 351° |
| 2026-05-04 22:48 | -41.46090 | -73.09546 | 33913 ft | 448 kts | 351° |
| 2026-05-04 22:49 | -41.39863 | -73.08771 | 33909 ft | 453 kts | 353° |
| 2026-05-04 22:49 | -41.33581 | -73.07591 | 33911 ft | 458 kts | 355° |
| 2026-05-04 22:50 | -41.27288 | -73.06280 | 33911 ft | 458 kts | 355° |
| 2026-05-04 22:50 | -41.20993 | -73.05043 | 33919 ft | 457 kts | 355° |
| 2026-05-04 22:51 | -41.14690 | -73.03871 | 33923 ft | 457 kts | 354° |
| 2026-05-04 22:51 | -41.08430 | -73.02729 | 33924 ft | 457 kts | 354° |
| 2026-05-04 22:52 | -41.02126 | -73.01567 | 33923 ft | 457 kts | 354° |
| 2026-05-04 22:52 | -40.95823 | -73.00400 | 33918 ft | 457 kts | 355° |
| 2026-05-04 22:53 | -40.89519 | -72.99242 | 33916 ft | 458 kts | 354° |
| 2026-05-04 22:53 | -40.83208 | -72.98083 | 33913 ft | 458 kts | 354° |
| 2026-05-04 22:54 | -40.76890 | -72.96934 | 33918 ft | 458 kts | 354° |
| 2026-05-04 22:54 | -40.70576 | -72.95783 | 33920 ft | 458 kts | 354° |
| 2026-05-04 22:55 | -40.64253 | -72.94636 | 33919 ft | 458 kts | 354° |
| 2026-05-04 22:55 | -40.57933 | -72.93492 | 33923 ft | 459 kts | 354° |
| 2026-05-04 22:56 | -40.51609 | -72.92336 | 33922 ft | 459 kts | 354° |
| 2026-05-04 22:56 | -40.45329 | -72.91200 | 33916 ft | 459 kts | 354° |
| 2026-05-04 22:57 | -40.39000 | -72.90062 | 33922 ft | 459 kts | 354° |
| 2026-05-04 22:57 | -40.32676 | -72.88912 | 33916 ft | 459 kts | 354° |
| 2026-05-04 22:58 | -40.26347 | -72.87841 | 33920 ft | 457 kts | 353° |
| 2026-05-04 22:58 | -40.20029 | -72.86847 | 33920 ft | 457 kts | 353° |
| 2026-05-04 22:59 | -40.13702 | -72.85843 | 33919 ft | 458 kts | 353° |
| 2026-05-04 22:59 | -40.07385 | -72.84820 | 33917 ft | 458 kts | 353° |
| 2026-05-04 23:00 | -40.01053 | -72.83770 | 33918 ft | 458 kts | 353° |
| 2026-05-04 23:00 | -39.94731 | -72.82743 | 33919 ft | 458 kts | 353° |
| 2026-05-04 23:01 | -39.88401 | -72.81727 | 33930 ft | 458 kts | 352° |
| 2026-05-04 23:01 | -39.82068 | -72.80709 | 33927 ft | 459 kts | 352° |
| 2026-05-04 23:02 | -39.75723 | -72.79674 | 33924 ft | 459 kts | 352° |
| 2026-05-04 23:02 | -39.69385 | -72.78648 | 33966 ft | 460 kts | 352° |
| 2026-05-04 23:03 | -39.63081 | -72.77510 | 33971 ft | 461 kts | 353° |
| 2026-05-04 23:03 | -39.56718 | -72.76305 | 33967 ft | 461 kts | 353° |
| 2026-05-04 23:04 | -39.50372 | -72.75139 | 33966 ft | 460 kts | 353° |
| 2026-05-04 23:04 | -39.44038 | -72.74000 | 33958 ft | 459 kts | 353° |
| 2026-05-04 23:05 | -39.37700 | -72.72872 | 33948 ft | 459 kts | 353° |
| 2026-05-04 23:05 | -39.31369 | -72.71729 | 33951 ft | 459 kts | 353° |
| 2026-05-04 23:06 | -39.25043 | -72.70573 | 33959 ft | 459 kts | 353° |
| 2026-05-04 23:06 | -39.18727 | -72.69415 | 33971 ft | 458 kts | 353° |
| 2026-05-04 23:07 | -39.12414 | -72.68281 | 33969 ft | 457 kts | 354° |
| 2026-05-04 23:07 | -39.06111 | -72.67151 | 33977 ft | 457 kts | 354° |
| 2026-05-04 23:08 | -38.99815 | -72.66027 | 33983 ft | 457 kts | 354° |
| 2026-05-04 23:08 | -38.93569 | -72.64908 | 33989 ft | 456 kts | 354° |
| 2026-05-04 23:09 | -38.87270 | -72.63630 | 33985 ft | 462 kts | 357° |
| 2026-05-04 23:09 | -38.80954 | -72.61811 | 33981 ft | 466 kts | 360° |
| 2026-05-04 23:10 | -38.74653 | -72.59833 | 33990 ft | 465 kts | 359° |
| 2026-05-04 23:10 | -38.68362 | -72.57972 | 33990 ft | 463 kts | 358° |
| 2026-05-04 23:11 | -38.62080 | -72.56209 | 33986 ft | 461 kts | 358° |
| 2026-05-04 23:11 | -38.55849 | -72.54471 | 33986 ft | 461 kts | 358° |
| 2026-05-04 23:12 | -38.49579 | -72.52693 | 33985 ft | 461 kts | 359° |
| 2026-05-04 23:12 | -38.43318 | -72.50917 | 33988 ft | 460 kts | 359° |
| 2026-05-04 23:13 | -38.37063 | -72.49152 | 33990 ft | 460 kts | 359° |
| 2026-05-04 23:13 | -38.30821 | -72.47395 | 33995 ft | 459 kts | 359° |
| 2026-05-04 23:14 | -38.24581 | -72.45639 | 34000 ft | 459 kts | 359° |
| 2026-05-04 23:14 | -38.18342 | -72.43896 | 34000 ft | 458 kts | 359° |
| 2026-05-04 23:15 | -38.12112 | -72.42147 | 34001 ft | 458 kts | 360° |
| 2026-05-04 23:15 | -38.05894 | -72.40412 | 34002 ft | 458 kts | 359° |
| 2026-05-04 23:16 | -37.99715 | -72.38688 | 34001 ft | 457 kts | 360° |
| 2026-05-04 23:16 | -37.93500 | -72.36957 | 34009 ft | 457 kts | 360° |
| 2026-05-04 23:17 | -37.87290 | -72.35235 | 34007 ft | 456 kts | 0° |
| 2026-05-04 23:17 | -37.81087 | -72.33509 | 34010 ft | 456 kts | 0° |
| 2026-05-04 23:18 | -37.74891 | -72.31788 | 34011 ft | 455 kts | 0° |
| 2026-05-04 23:18 | -37.68702 | -72.30078 | 34011 ft | 455 kts | 0° |
| 2026-05-04 23:19 | -37.62509 | -72.28359 | 34017 ft | 456 kts | 1° |
| 2026-05-04 23:19 | -37.56364 | -72.26503 | 34017 ft | 457 kts | 2° |
| 2026-05-04 23:20 | -37.50199 | -72.24562 | 34016 ft | 457 kts | 2° |
| 2026-05-04 23:20 | -37.44021 | -72.22647 | 34013 ft | 457 kts | 2° |
| 2026-05-04 23:21 | -37.37836 | -72.20776 | 34008 ft | 457 kts | 2° |
| 2026-05-04 23:21 | -37.31652 | -72.18908 | 34006 ft | 457 kts | 2° |
| 2026-05-04 23:22 | -37.25501 | -72.17039 | 34033 ft | 450 kts | 4° |
| 2026-05-04 23:22 | -37.19450 | -72.15196 | 34025 ft | 446 kts | 4° |
| 2026-05-04 23:23 | -37.13490 | -72.13400 | 34025 ft | 446 kts | 4° |
| 2026-05-04 23:23 | -37.07420 | -72.11571 | 34022 ft | 446 kts | 4° |
| 2026-05-04 23:24 | -37.01372 | -72.09753 | 34016 ft | 446 kts | 4° |
| 2026-05-04 23:24 | -36.95331 | -72.07943 | 34013 ft | 446 kts | 4° |
| 2026-05-04 23:25 | -36.89279 | -72.06117 | 34004 ft | 447 kts | 4° |
| 2026-05-04 23:25 | -36.83267 | -72.04315 | 34001 ft | 447 kts | 4° |
| 2026-05-04 23:26 | -36.77223 | -72.02514 | 33990 ft | 447 kts | 4° |
| 2026-05-04 23:26 | -36.71168 | -72.00709 | 33990 ft | 447 kts | 4° |
| 2026-05-04 23:27 | -36.65112 | -71.98905 | 33987 ft | 447 kts | 4° |
| 2026-05-04 23:27 | -36.59060 | -71.97102 | 33986 ft | 448 kts | 4° |
| 2026-05-04 23:28 | -36.53002 | -71.95295 | 33985 ft | 448 kts | 4° |
| 2026-05-04 23:28 | -36.46943 | -71.93491 | 33990 ft | 448 kts | 4° |
| 2026-05-04 23:29 | -36.40876 | -71.91698 | 33993 ft | 447 kts | 4° |
| 2026-05-04 23:29 | -36.34817 | -71.89912 | 33995 ft | 448 kts | 4° |
| 2026-05-04 23:30 | -36.28759 | -71.88116 | 34001 ft | 448 kts | 4° |
| 2026-05-04 23:30 | -36.22739 | -71.86332 | 34004 ft | 448 kts | 4° |
| 2026-05-04 23:31 | -36.16677 | -71.84553 | 34003 ft | 447 kts | 4° |
| 2026-05-04 23:31 | -36.10618 | -71.82772 | 34006 ft | 447 kts | 5° |
| 2026-05-04 23:32 | -36.04560 | -71.80982 | 34005 ft | 447 kts | 5° |
| 2026-05-04 23:32 | -35.98506 | -71.79205 | 34003 ft | 447 kts | 5° |
| 2026-05-04 23:33 | -35.92458 | -71.77439 | 34003 ft | 447 kts | 5° |
| 2026-05-04 23:33 | -35.86412 | -71.75675 | 34005 ft | 446 kts | 5° |
| 2026-05-04 23:34 | -35.80366 | -71.73913 | 34003 ft | 446 kts | 5° |
| 2026-05-04 23:34 | -35.74328 | -71.72156 | 34002 ft | 446 kts | 5° |
| 2026-05-04 23:35 | -35.68287 | -71.70404 | 34001 ft | 446 kts | 5° |
| 2026-05-04 23:35 | -35.62245 | -71.68654 | 34004 ft | 446 kts | 5° |
| 2026-05-04 23:36 | -35.57223 | -71.67197 | 33995 ft | 446 kts | 5° |
| 2026-05-04 23:36 | -35.51182 | -71.65443 | 33995 ft | 446 kts | 5° |
| 2026-05-04 23:37 | -35.45130 | -71.63687 | 33996 ft | 447 kts | 5° |
| 2026-05-04 23:37 | -35.39067 | -71.61938 | 33993 ft | 448 kts | 5° |
| 2026-05-04 23:38 | -35.32994 | -71.60181 | 33992 ft | 448 kts | 5° |
| 2026-05-04 23:38 | -35.26927 | -71.58432 | 33989 ft | 448 kts | 5° |
| 2026-05-04 23:39 | -35.20839 | -71.56687 | 33996 ft | 449 kts | 5° |
| 2026-05-04 23:39 | -35.14756 | -71.54947 | 33989 ft | 449 kts | 5° |
| 2026-05-04 23:40 | -35.08677 | -71.53208 | 33988 ft | 449 kts | 6° |
| 2026-05-04 23:40 | -35.02634 | -71.51474 | 33983 ft | 449 kts | 6° |
| 2026-05-04 23:41 | -34.96550 | -71.49733 | 33986 ft | 449 kts | 6° |
| 2026-05-04 23:41 | -34.90459 | -71.47998 | 33983 ft | 449 kts | 6° |
| 2026-05-04 23:42 | -34.84375 | -71.46264 | 33987 ft | 449 kts | 6° |
| 2026-05-04 23:42 | -34.78303 | -71.44534 | 33993 ft | 449 kts | 6° |
| 2026-05-04 23:43 | -34.72212 | -71.42806 | 33994 ft | 448 kts | 6° |
| 2026-05-04 23:43 | -34.66135 | -71.41080 | 33997 ft | 450 kts | 7° |
| 2026-05-04 23:44 | -34.60236 | -71.38410 | 33995 ft | 457 kts | 15° |
| 2026-05-04 23:44 | -34.54345 | -71.35493 | 33992 ft | 457 kts | 15° |
| 2026-05-04 23:45 | -34.48452 | -71.32588 | 33992 ft | 457 kts | 15° |
| 2026-05-04 23:45 | -34.42554 | -71.29699 | 33987 ft | 457 kts | 14° |
| 2026-05-04 23:46 | -34.36646 | -71.26812 | 33856 ft | 458 kts | 14° |
| 2026-05-04 23:46 | -34.33723 | -71.25380 | 33584 ft | 459 kts | 14° |
| 2026-05-04 23:46 | -34.30761 | -71.23928 | 32813 ft | 462 kts | 14° |
| 2026-05-04 23:47 | -34.27764 | -71.22461 | 31784 ft | 468 kts | 14° |
| 2026-05-04 23:47 | -34.24759 | -71.20982 | 31197 ft | 462 kts | 14° |
| 2026-05-04 23:47 | -34.21794 | -71.19522 | 30558 ft | 459 kts | 14° |
| 2026-05-04 23:47 | -34.18843 | -71.18078 | 29904 ft | 456 kts | 14° |
| 2026-05-04 23:48 | -34.15907 | -71.16643 | 29246 ft | 452 kts | 14° |
| 2026-05-04 23:48 | -34.13009 | -71.15227 | 28631 ft | 447 kts | 14° |
| 2026-05-04 23:48 | -34.10137 | -71.13825 | 28026 ft | 443 kts | 14° |
| 2026-05-04 23:48 | -34.07286 | -71.12438 | 27414 ft | 439 kts | 14° |
| 2026-05-04 23:49 | -34.04458 | -71.11071 | 26823 ft | 437 kts | 14° |
| 2026-05-04 23:49 | -34.01637 | -71.09710 | 26247 ft | 434 kts | 14° |
| 2026-05-04 23:49 | -33.98879 | -71.08371 | 26061 ft | 420 kts | 14° |
| 2026-05-04 23:49 | -33.96252 | -71.07079 | 25876 ft | 396 kts | 14° |
| 2026-05-04 23:50 | -33.93742 | -71.05844 | 25368 ft | 384 kts | 13° |
| 2026-05-04 23:50 | -33.91278 | -71.04646 | 24871 ft | 381 kts | 13° |
| 2026-05-04 23:50 | -33.88829 | -71.03469 | 24509 ft | 378 kts | 13° |
| 2026-05-04 23:50 | -33.86394 | -71.02300 | 24123 ft | 375 kts | 13° |
| 2026-05-04 23:51 | -33.83970 | -71.01133 | 23662 ft | 374 kts | 14° |
| 2026-05-04 23:51 | -33.81590 | -70.99984 | 23192 ft | 372 kts | 14° |
| 2026-05-04 23:51 | -33.79199 | -70.98833 | 22786 ft | 369 kts | 14° |
| 2026-05-04 23:51 | -33.76825 | -70.97688 | 22385 ft | 365 kts | 14° |
| 2026-05-04 23:52 | -33.74477 | -70.96557 | 21972 ft | 362 kts | 14° |
| 2026-05-04 23:52 | -33.72144 | -70.95432 | 21581 ft | 359 kts | 14° |
| 2026-05-04 23:52 | -33.69832 | -70.94316 | 21193 ft | 356 kts | 14° |
| 2026-05-04 23:52 | -33.67542 | -70.93209 | 20813 ft | 353 kts | 15° |
| 2026-05-04 23:53 | -33.65268 | -70.92111 | 20428 ft | 352 kts | 15° |
| 2026-05-04 23:53 | -33.62994 | -70.91017 | 19844 ft | 350 kts | 15° |
| 2026-05-04 23:53 | -33.60754 | -70.89939 | 19255 ft | 344 kts | 15° |
| 2026-05-04 23:53 | -33.58546 | -70.88876 | 18678 ft | 339 kts | 15° |
| 2026-05-04 23:54 | -33.56392 | -70.87749 | 18076 ft | 338 kts | 22° |
| 2026-05-04 23:54 | -33.54377 | -70.86311 | 17424 ft | 336 kts | 26° |
| 2026-05-04 23:54 | -33.52397 | -70.84851 | 16786 ft | 331 kts | 26° |
| 2026-05-04 23:54 | -33.50447 | -70.83412 | 16160 ft | 327 kts | 26° |
| 2026-05-04 23:55 | -33.48523 | -70.81990 | 15552 ft | 323 kts | 26° |
| 2026-05-04 23:55 | -33.46619 | -70.80589 | 14954 ft | 319 kts | 26° |
| 2026-05-04 23:55 | -33.42882 | -70.77847 | 13775 ft | 311 kts | 27° |
| 2026-05-04 23:56 | -33.41080 | -70.76525 | 13141 ft | 307 kts | 27° |
| 2026-05-04 23:56 | -33.39237 | -70.75174 | 12496 ft | 304 kts | 27° |
| 2026-05-04 23:56 | -33.37468 | -70.73878 | 11903 ft | 300 kts | 28° |
| 2026-05-04 23:56 | -33.35703 | -70.72586 | 11419 ft | 299 kts | 28° |
| 2026-05-04 23:57 | -33.33916 | -70.71283 | 10938 ft | 301 kts | 28° |
| 2026-05-04 23:57 | -33.32092 | -70.70042 | 10462 ft | 302 kts | 20° |
| 2026-05-04 23:57 | -33.30112 | -70.69380 | 9983 ft | 290 kts | 4° |
| 2026-05-04 23:57 | -33.28111 | -70.69401 | 9477 ft | 278 kts | 353° |
| 2026-05-04 23:58 | -33.26216 | -70.69638 | 8974 ft | 270 kts | 353° |
| 2026-05-04 23:58 | -33.24392 | -70.69859 | 8481 ft | 263 kts | 353° |
| 2026-05-04 23:58 | -33.22593 | -70.70075 | 7987 ft | 256 kts | 353° |
| 2026-05-04 23:58 | -33.20818 | -70.70287 | 7505 ft | 258 kts | 354° |
| 2026-05-04 23:59 | -33.19019 | -70.70473 | 7085 ft | 259 kts | 355° |
| 2026-05-04 23:59 | -33.17251 | -70.70642 | 6994 ft | 252 kts | 355° |
| 2026-05-04 23:59 | -33.15504 | -70.70808 | 6997 ft | 252 kts | 355° |
| 2026-05-04 23:59 | -33.13755 | -70.70975 | 6995 ft | 252 kts | 355° |
| 2026-05-05 00:00 | -33.12007 | -70.71144 | 6996 ft | 252 kts | 355° |
| 2026-05-05 00:00 | -33.11416 | -70.71202 | 6995 ft | 252 kts | 355° |
| 2026-05-05 00:00 | -33.08512 | -70.71486 | 6994 ft | 251 kts | 355° |
| 2026-05-05 00:00 | -33.06821 | -70.71660 | 6988 ft | 235 kts | 352° |
| 2026-05-05 00:01 | -33.05366 | -70.72326 | 6989 ft | 220 kts | 320° |
| 2026-05-05 00:01 | -33.04502 | -70.73803 | 6990 ft | 222 kts | 287° |
| 2026-05-05 00:01 | -33.04485 | -70.75628 | 6989 ft | 226 kts | 253° |
| 2026-05-05 00:01 | -33.05278 | -70.77261 | 6994 ft | 230 kts | 233° |
| 2026-05-05 00:02 | -33.06304 | -70.78700 | 6988 ft | 225 kts | 230° |
| 2026-05-05 00:02 | -33.07312 | -70.80034 | 7011 ft | 207 kts | 230° |
| 2026-05-05 00:02 | -33.08255 | -70.81208 | 6987 ft | 190 kts | 226° |
| 2026-05-05 00:02 | -33.09308 | -70.82050 | 6977 ft | 180 kts | 200° |
| 2026-05-05 00:03 | -33.10601 | -70.82186 | 6767 ft | 194 kts | 168° |
| 2026-05-05 00:03 | -33.11927 | -70.81894 | 6491 ft | 193 kts | 174° |
| 2026-05-05 00:03 | -33.13250 | -70.81763 | 6208 ft | 190 kts | 176° |
| 2026-05-05 00:03 | -33.14560 | -70.81669 | 5956 ft | 188 kts | 176° |
| 2026-05-05 00:04 | -33.15866 | -70.81573 | 5710 ft | 187 kts | 176° |
| 2026-05-05 00:04 | -33.17158 | -70.81469 | 5465 ft | 185 kts | 175° |
| 2026-05-05 00:04 | -33.18425 | -70.81358 | 5217 ft | 178 kts | 175° |
| 2026-05-05 00:04 | -33.19629 | -70.81259 | 4983 ft | 168 kts | 176° |
| 2026-05-05 00:05 | -33.20778 | -70.81203 | 4763 ft | 164 kts | 177° |
| 2026-05-05 00:05 | -33.21911 | -70.81154 | 4542 ft | 162 kts | 177° |
| 2026-05-05 00:05 | -33.23041 | -70.81102 | 4316 ft | 162 kts | 177° |
| 2026-05-05 00:05 | -33.24162 | -70.81050 | 4101 ft | 161 kts | 177° |
| 2026-05-05 00:06 | -33.25274 | -70.80997 | 3889 ft | 159 kts | 176° |
| 2026-05-05 00:06 | -33.26377 | -70.80943 | 3675 ft | 158 kts | 176° |
| 2026-05-05 00:06 | -33.27456 | -70.80890 | 3470 ft | 156 kts | 176° |
| 2026-05-05 00:06 | -33.28536 | -70.80835 | 3267 ft | 154 kts | 176° |
| 2026-05-05 00:07 | -33.29607 | -70.80780 | 3059 ft | 153 kts | 176° |
| 2026-05-05 00:07 | -33.30664 | -70.80724 | 2851 ft | 151 kts | 177° |
| 2026-05-05 00:07 | -33.31712 | -70.80670 | 2650 ft | 150 kts | 177° |
| 2026-05-05 00:07 | -33.32752 | -70.80615 | 2448 ft | 149 kts | 177° |
| 2026-05-05 00:08 | -33.33785 | -70.80560 | 2264 ft | 148 kts | 176° |
| 2026-05-05 00:08 | -33.34811 | -70.80498 | 2079 ft | 148 kts | 177° |
| 2026-05-05 00:08 | -33.35836 | -70.80433 | 1864 ft | 146 kts | 178° |
| 2026-05-05 00:08 | -33.36854 | -70.80391 | 1690 ft | 146 kts | 177° |
| 2026-05-05 00:09 | -33.37857 | -70.80336 | 1576 ft | 135 kts | 177° |
| 2026-05-05 00:09 | -33.38647 | -70.80296 | 1574 ft | 89 kts | 177° |
| 2026-05-05 00:09 | -33.39095 | -70.80271 | 1573 ft | 40 kts | 178° |
| 2026-05-05 00:09 | -33.39301 | -70.80218 | 1572 ft | 23 kts | 153° |
| 2026-05-05 00:10 | -33.39417 | -70.80133 | 1568 ft | 17 kts | 146° |
| 2026-05-05 00:10 | -33.39484 | -70.80081 | 1566 ft | 9 kts | 144° |
| 2026-05-05 00:10 | -33.39525 | -70.80020 | 1566 ft | 9 kts | 112° |
| 2026-05-05 00:10 | -33.39530 | -70.79946 | 1565 ft | 8 kts | 89° |
| 2026-05-05 00:11 | -33.39528 | -70.79871 | 1565 ft | 9 kts | 88° |
| 2026-05-05 00:11 | -33.39526 | -70.79799 | 1565 ft | 8 kts | 87° |
| 2026-05-05 00:11 | -33.39523 | -70.79736 | 1565 ft | 9 kts | 87° |
| 2026-05-05 00:11 | -33.39516 | -70.79563 | 1564 ft | 30 kts | 87° |
| 2026-05-05 00:12 | -33.39505 | -70.79308 | 1564 ft | 31 kts | 86° |
| 2026-05-05 00:12 | -33.39500 | -70.79061 | 1564 ft | 23 kts | 105° |
| 2026-05-05 00:12 | -33.39568 | -70.79017 | 1564 ft | 0 kts | 184° |